createdAt,value
2019-05-10T00:00:13.193Z,11.53
2019-05-10T00:03:01.850Z,10.40
2019-05-10T00:05:49.950Z,11.80
2019-05-10T00:08:37.666Z,10.30
2019-05-10T00:11:32.851Z,10.63
2019-05-10T00:14:26.427Z,11.90
2019-05-10T00:17:04.953Z,11.83
2019-05-10T00:19:35.508Z,11.33
2019-05-10T00:22:06.286Z,11.00
2019-05-10T00:24:37.000Z,12.13
2019-05-10T00:27:07.555Z,11.37
2019-05-10T00:29:38.332Z,11.47
2019-05-10T00:32:09.088Z,10.63
2019-05-10T00:34:39.627Z,11.60
2019-05-10T00:37:11.003Z,12.57
2019-05-10T00:39:41.588Z,11.53
2019-05-10T00:42:12.135Z,12.13
2019-05-10T00:44:42.793Z,11.93
2019-05-10T00:47:13.479Z,12.67
2019-05-10T00:49:44.962Z,10.73
2019-05-10T00:52:15.342Z,11.53
2019-05-10T01:01:23.786Z,11.80
2019-05-10T01:03:54.394Z,12.90
2019-05-10T01:06:25.343Z,12.67
2019-05-10T01:08:55.695Z,11.73
2019-05-10T01:11:26.423Z,12.67
2019-05-10T01:13:56.804Z,13.53
2019-05-10T01:16:27.674Z,12.30
2019-05-10T01:21:28.199Z,13.37
2019-05-10T01:23:58.864Z,12.13
2019-05-10T01:26:29.460Z,13.87
2019-05-10T01:28:59.844Z,13.47
2019-05-10T01:31:30.483Z,17.30
2019-05-10T01:34:01.098Z,15.10
2019-05-10T01:36:31.471Z,12.80
2019-05-10T01:39:02.064Z,14.37
2019-05-10T01:41:33.624Z,13.23
2019-05-10T01:44:04.141Z,13.50
2019-05-10T01:46:35.827Z,14.87
2019-05-10T01:49:06.306Z,15.20
2019-05-10T01:51:37.127Z,12.57
2019-05-10T01:54:07.703Z,14.83
2019-05-10T01:56:38.548Z,14.87
2019-05-10T01:59:09.279Z,16.40
2019-05-10T02:01:39.814Z,16.77
2019-05-10T02:04:10.360Z,15.87
2019-05-10T02:06:40.834Z,15.90
2019-05-10T02:09:11.411Z,16.43
2019-05-10T02:11:42.232Z,15.27
2019-05-10T02:14:12.617Z,16.90
2019-05-10T02:16:43.257Z,16.47
2019-05-10T02:19:13.993Z,16.67
2019-05-10T02:21:44.524Z,18.73
2019-05-10T02:24:15.015Z,16.20
2019-05-10T02:26:45.713Z,17.53
2019-05-10T02:29:16.187Z,17.63
2019-05-10T02:31:46.960Z,15.97
2019-05-10T02:34:17.584Z,19.17
2019-05-10T02:36:48.148Z,14.13
2019-05-10T02:39:18.673Z,15.60
2019-05-10T02:41:49.180Z,17.90
2019-05-10T02:44:19.845Z,15.67
2019-05-10T02:46:50.484Z,15.93
2019-05-10T02:53:11.794Z,14.83
2019-05-10T02:55:42.374Z,15.47
2019-05-10T02:58:15.378Z,14.57
2019-05-10T03:00:48.784Z,15.60
2019-05-10T03:03:20.849Z,15.30
2019-05-10T03:05:53.918Z,16.70
2019-05-10T03:08:25.032Z,17.83
2019-05-10T03:11:00.676Z,16.10
2019-05-10T03:13:32.079Z,14.70
2019-05-10T03:16:04.613Z,15.63
2019-05-10T03:18:35.173Z,19.07
2019-05-10T03:21:08.738Z,17.37
2019-05-10T03:23:40.353Z,18.57
2019-05-10T03:26:10.712Z,21.87
2019-05-10T03:28:41.364Z,19.23
2019-05-10T03:31:11.834Z,20.07
2019-05-10T03:33:42.456Z,22.07
2019-05-10T03:36:13.090Z,19.97
2019-05-10T03:38:43.853Z,19.90
2019-05-10T03:41:14.440Z,21.03
2019-05-10T03:43:45.131Z,19.03
2019-05-10T03:46:15.562Z,21.20
2019-05-10T03:48:47.292Z,20.10
2019-05-10T03:53:47.434Z,19.63
2019-05-10T03:56:19.016Z,25.07
2019-05-10T03:58:49.364Z,20.50
2019-05-10T04:01:19.760Z,19.73
2019-05-10T04:03:50.170Z,23.13
2019-05-10T04:06:20.720Z,23.73
2019-05-10T04:08:51.265Z,20.97
2019-05-10T04:11:22.308Z,21.60
2019-05-10T04:13:52.825Z,20.20
2019-05-10T04:16:23.327Z,18.90
2019-05-10T04:18:53.737Z,22.70
2019-05-10T04:21:24.384Z,16.73
2019-05-10T04:23:55.969Z,17.53
2019-05-10T04:26:27.941Z,19.70
2019-05-10T04:28:58.528Z,19.47
2019-05-10T04:31:29.225Z,18.60
2019-05-10T04:33:59.616Z,16.13
2019-05-10T04:36:30.440Z,22.73
2019-05-10T04:39:01.060Z,21.37
2019-05-10T04:41:31.962Z,21.20
2019-05-10T04:44:02.635Z,19.63
2019-05-10T04:46:33.747Z,16.30
2019-05-10T04:49:05.361Z,21.80
2019-05-10T04:51:36.577Z,24.03
2019-05-10T04:54:06.933Z,23.07
2019-05-10T04:56:37.716Z,21.63
2019-05-10T04:59:08.148Z,22.87
2019-05-10T05:01:38.834Z,20.97
2019-05-10T05:04:09.565Z,20.20
2019-05-10T05:06:40.464Z,20.73
2019-05-10T05:09:12.533Z,19.80
2019-05-10T05:11:43.102Z,19.03
2019-05-10T05:14:13.472Z,18.53
2019-05-10T05:16:43.997Z,16.50
2019-05-10T05:19:14.643Z,15.47
2019-05-10T05:21:45.429Z,15.03
2019-05-10T05:24:16.829Z,15.50
2019-05-10T05:26:48.871Z,12.87
2019-05-10T05:29:19.407Z,14.23
2019-05-10T05:31:53.819Z,13.60
2019-05-10T05:34:22.731Z,13.73
2019-05-10T05:36:53.884Z,13.70
2019-05-10T05:39:24.819Z,13.10
2019-05-10T05:41:56.718Z,12.33
2019-05-10T05:44:27.899Z,12.80
2019-05-10T05:46:58.422Z,11.97
2019-05-10T05:49:29.500Z,11.90
2019-05-10T05:52:00.613Z,11.97
2019-05-10T05:54:31.236Z,12.23
2019-05-10T05:57:01.988Z,12.00
2019-05-10T05:59:35.659Z,11.27
2019-05-10T06:02:07.695Z,11.50
2019-05-10T06:04:40.798Z,11.60
2019-05-10T06:07:12.412Z,10.87
2019-05-10T06:09:43.050Z,10.73
2019-05-10T06:12:14.264Z,10.30
2019-05-10T06:14:49.930Z,10.27
2019-05-10T06:17:17.477Z,10.43
2019-05-10T06:19:48.377Z,10.97
2019-05-10T06:22:19.447Z,10.40
2019-05-10T06:24:54.009Z,9.97
2019-05-10T06:27:23.821Z,11.07
2019-05-10T06:29:54.486Z,10.23
2019-05-10T06:32:25.322Z,10.73
2019-05-10T06:34:56.904Z,10.63
2019-05-10T06:37:31.210Z,11.20
2019-05-10T06:40:00.291Z,10.63
2019-05-10T06:42:34.546Z,9.80
2019-05-10T06:45:09.246Z,10.03
2019-05-10T06:47:36.175Z,9.00
2019-05-10T06:50:07.247Z,9.63
2019-05-10T06:52:38.289Z,10.00
2019-05-10T06:55:09.440Z,9.53
2019-05-10T06:57:40.107Z,9.53
2019-05-10T07:00:14.257Z,9.20
2019-05-10T07:02:45.773Z,8.13
2019-05-10T07:05:16.679Z,8.50
2019-05-10T07:07:48.324Z,7.60
2019-05-10T07:10:24.850Z,7.57
2019-05-10T07:12:57.086Z,7.40
2019-05-10T07:15:25.719Z,7.27
2019-05-10T07:17:56.503Z,6.53
2019-05-10T07:20:29.587Z,7.77
2019-05-10T07:23:05.383Z,6.47
2019-05-10T07:25:32.027Z,7.70
2019-05-10T07:28:02.908Z,6.73
2019-05-10T07:30:45.071Z,6.17
2019-05-10T07:33:16.731Z,7.00
2019-05-10T07:35:49.935Z,6.03
2019-05-10T07:38:23.535Z,6.13
2019-05-10T07:40:52.947Z,6.90
2019-05-10T07:43:26.448Z,7.07
2019-05-10T07:45:58.655Z,5.60
2019-05-10T07:48:28.328Z,6.80
2019-05-10T07:50:58.747Z,6.30
2019-05-10T07:53:29.543Z,5.90
2019-05-10T07:56:05.442Z,6.40
2019-05-10T07:58:31.908Z,5.90
2019-05-10T08:01:03.371Z,5.97
2019-05-10T08:06:03.351Z,5.50
2019-05-10T08:08:34.156Z,5.90
2019-05-10T08:11:04.967Z,6.40
2019-05-10T08:13:39.272Z,6.10
2019-05-10T08:16:13.510Z,6.17
2019-05-10T08:18:42.460Z,6.43
2019-05-10T08:21:21.722Z,5.87
2019-05-10T08:23:46.479Z,5.93
2019-05-10T08:26:21.945Z,5.00
2019-05-10T08:28:49.325Z,5.37
2019-05-10T08:31:21.886Z,5.13
2019-05-10T08:33:57.284Z,5.00
2019-05-10T08:36:24.500Z,5.50
2019-05-10T08:41:24.485Z,5.43
2019-05-10T08:43:54.912Z,4.93
2019-05-10T08:46:36.973Z,5.00
2019-05-10T08:48:57.667Z,5.00
2019-05-10T08:51:28.083Z,4.77
2019-05-10T08:53:58.819Z,5.03
2019-05-10T08:56:29.257Z,4.80
2019-05-10T08:59:03.644Z,4.93
2019-05-10T09:01:44.279Z,4.77
2019-05-10T09:04:08.984Z,5.20
2019-05-10T09:06:42.022Z,4.60
2019-05-10T09:09:12.663Z,4.67
2019-05-10T09:11:44.427Z,5.20
2019-05-10T09:14:20.057Z,6.57
2019-05-10T09:16:54.330Z,8.90
2019-05-10T09:19:27.743Z,9.00
2019-05-10T09:21:55.059Z,7.90
2019-05-10T09:24:34.549Z,10.37
2019-05-10T09:27:02.410Z,10.60
2019-05-10T09:29:37.293Z,10.30
2019-05-10T09:32:06.699Z,10.03
2019-05-10T09:34:37.623Z,10.17
2019-05-10T09:37:13.130Z,10.73
2019-05-10T09:39:42.333Z,9.40
2019-05-10T09:42:24.871Z,9.60
2019-05-10T09:44:46.527Z,9.50
2019-05-10T09:47:17.156Z,7.70
2019-05-10T09:49:56.566Z,8.70
2019-05-10T09:52:20.308Z,8.55
2019-05-10T09:54:51.563Z,8.47
2019-05-10T09:57:21.916Z,9.37
2019-05-10T09:59:52.902Z,9.70
2019-05-10T10:02:27.249Z,9.67
2019-05-10T10:04:58.627Z,10.40
2019-05-10T10:07:29.342Z,10.67
2019-05-10T10:09:59.539Z,10.87
2019-05-10T10:12:29.865Z,12.43
2019-05-10T10:15:00.383Z,13.67
2019-05-10T10:17:38.678Z,13.07
2019-05-10T10:20:04.840Z,12.93
2019-05-10T10:22:35.368Z,12.97
2019-05-10T10:25:07.428Z,11.90
2019-05-10T10:27:39.547Z,12.53
2019-05-10T10:30:14.826Z,12.43
2019-05-10T10:32:44.857Z,12.83
2019-05-10T10:35:19.856Z,12.60
2019-05-10T10:37:50.283Z,13.60
2019-05-10T10:40:21.556Z,14.73
2019-05-10T10:42:55.119Z,15.30
2019-05-10T10:45:27.702Z,15.63
2019-05-10T10:48:02.534Z,14.77
2019-05-10T10:50:31.011Z,14.93
2019-05-10T10:53:03.608Z,15.43
2019-05-10T10:55:40.002Z,14.50
2019-05-10T10:58:09.391Z,13.43
2019-05-10T11:00:40.300Z,13.00
2019-05-10T11:03:10.876Z,13.07
2019-05-10T11:05:44.927Z,13.67
2019-05-10T11:08:15.861Z,13.70
2019-05-10T11:10:50.805Z,12.80
2019-05-10T11:13:40.552Z,13.27
2019-05-10T11:15:58.800Z,12.23
2019-05-10T11:18:26.259Z,12.10
2019-05-10T11:21:02.581Z,11.60
2019-05-10T11:23:38.713Z,11.97
2019-05-10T11:26:05.735Z,11.20
2019-05-10T11:28:43.908Z,10.60
2019-05-10T11:31:11.203Z,11.47
2019-05-10T11:33:41.468Z,11.90
2019-05-10T11:36:12.173Z,11.23
2019-05-10T11:38:47.062Z,11.60
2019-05-10T11:41:21.309Z,10.77
2019-05-10T11:43:47.190Z,11.77
2019-05-10T11:46:20.920Z,11.60
2019-05-10T11:48:51.187Z,11.90
2019-05-10T11:51:21.823Z,10.43
2019-05-10T11:53:55.580Z,11.03
2019-05-10T11:56:27.820Z,11.03
2019-05-10T11:58:57.216Z,11.13
2019-05-10T12:01:27.596Z,10.90
2019-05-10T12:03:58.391Z,9.67
2019-05-10T12:06:31.763Z,10.50
2019-05-10T12:09:04.510Z,9.80
2019-05-10T12:11:40.048Z,10.17
2019-05-10T12:14:06.002Z,10.53
2019-05-10T12:16:36.613Z,11.67
2019-05-10T12:19:17.011Z,12.20
2019-05-10T12:21:39.997Z,12.23
2019-05-10T12:24:32.782Z,12.57
2019-05-10T12:29:17.111Z,12.77
2019-05-10T12:31:47.505Z,13.70
2019-05-10T12:34:20.684Z,13.17
2019-05-10T12:36:51.964Z,12.80
2019-05-10T12:39:22.572Z,12.60
2019-05-10T12:41:53.345Z,13.13
2019-05-10T12:46:54.295Z,14.50
2019-05-10T12:49:25.193Z,12.87
2019-05-10T12:51:55.724Z,14.03
2019-05-10T12:54:26.472Z,13.37
2019-05-10T12:56:57.095Z,14.40
2019-05-10T12:59:34.831Z,14.17
2019-05-10T13:02:11.049Z,13.67
2019-05-10T13:04:40.659Z,13.00
2019-05-10T13:07:09.684Z,13.67
2019-05-10T13:09:41.111Z,14.37
2019-05-10T13:12:11.822Z,13.10
2019-05-10T13:14:46.677Z,12.57
2019-05-10T13:19:44.429Z,11.27
2019-05-10T13:22:15.358Z,11.53
2019-05-10T13:24:46.428Z,10.43
2019-05-10T13:27:17.572Z,10.70
2019-05-10T13:30:01.693Z,9.73
2019-05-10T13:32:37.154Z,9.10
2019-05-10T13:35:07.968Z,9.17
2019-05-10T13:37:38.778Z,9.17
2019-05-10T13:40:24.213Z,9.37
2019-05-10T13:42:56.399Z,8.83
2019-05-10T13:45:31.676Z,9.17
2019-05-10T13:47:59.448Z,9.13
2019-05-10T13:50:30.092Z,8.67
2019-05-10T13:53:00.624Z,8.40
2019-05-10T13:55:31.217Z,8.37
2019-05-10T13:58:05.243Z,7.47
2019-05-10T14:00:36.154Z,7.47
2019-05-10T14:03:11.395Z,7.90
2019-05-10T14:05:42.443Z,7.07
2019-05-10T14:08:12.763Z,7.03
2019-05-10T14:10:43.291Z,6.70
2019-05-10T14:13:16.634Z,5.50
2019-05-10T14:15:46.191Z,5.63
2019-05-10T14:18:18.980Z,5.23
2019-05-10T14:20:49.584Z,5.00
2019-05-10T14:23:22.347Z,4.73
2019-05-10T14:25:52.816Z,5.30
2019-05-10T14:28:23.199Z,4.70
2019-05-10T14:30:57.355Z,4.63
2019-05-10T14:33:26.392Z,4.47
2019-05-10T14:36:01.094Z,4.93
2019-05-10T14:41:04.012Z,4.13
2019-05-10T14:43:30.734Z,4.27
2019-05-10T14:46:04.150Z,3.50
2019-05-10T14:48:35.607Z,4.10
2019-05-10T14:51:10.859Z,3.93
2019-05-10T14:53:38.763Z,3.67
2019-05-10T14:56:13.998Z,4.17
2019-05-10T14:58:44.072Z,3.53
2019-05-10T15:01:14.583Z,3.50
2019-05-10T15:03:47.254Z,3.90
2019-05-10T15:06:17.514Z,4.13
2019-05-10T15:08:48.521Z,3.47
2019-05-10T15:11:19.101Z,4.17
2019-05-10T15:13:49.911Z,4.90
2019-05-10T15:16:27.236Z,4.47
2019-05-10T15:18:55.195Z,4.92
2019-05-10T15:21:26.575Z,4.20
2019-05-10T15:24:00.942Z,4.43
2019-05-10T15:26:31.280Z,4.37
2019-05-10T15:29:04.951Z,4.63
2019-05-10T15:31:35.817Z,4.60
2019-05-10T15:34:11.043Z,4.20
2019-05-10T15:36:41.819Z,4.53
2019-05-10T15:39:12.820Z,3.83
2019-05-10T15:41:46.491Z,3.10
2019-05-10T15:44:18.188Z,2.50
2019-05-10T15:46:55.892Z,1.77
2019-05-10T15:49:26.480Z,1.80
2019-05-10T15:52:16.187Z,1.90
2019-05-10T15:54:29.823Z,1.67
2019-05-10T15:57:01.019Z,1.60
2019-05-10T15:59:31.796Z,1.40
2019-05-10T16:02:02.614Z,1.00
2019-05-10T16:04:33.212Z,0.90
2019-05-10T16:07:09.373Z,1.10
2019-05-10T16:12:26.027Z,0.80
2019-05-10T16:14:58.650Z,0.90
2019-05-10T16:17:29.432Z,0.90
2019-05-10T16:20:10.536Z,0.83
2019-05-10T16:22:41.138Z,0.87
2019-05-10T16:25:12.250Z,0.60
2019-05-10T16:27:45.432Z,0.90
2019-05-10T16:30:20.157Z,0.60
2019-05-10T16:32:49.443Z,0.70
2019-05-10T16:35:22.191Z,1.00
2019-05-10T16:37:52.916Z,0.70
2019-05-10T16:40:23.506Z,0.73
2019-05-10T16:42:57.077Z,0.70
2019-05-10T16:45:30.245Z,0.80
2019-05-10T16:48:05.404Z,0.80
2019-05-10T16:50:41.098Z,0.83
2019-05-10T16:53:13.596Z,0.70
2019-05-10T16:55:45.796Z,0.60
2019-05-10T16:58:28.334Z,0.70
2019-05-10T17:01:08.137Z,0.80
2019-05-10T17:03:51.178Z,0.93
2019-05-10T17:06:35.410Z,0.60
2019-05-10T17:09:09.507Z,0.77
2019-05-10T17:11:57.366Z,0.60
2019-05-10T17:14:26.142Z,0.50
2019-05-10T17:16:58.721Z,0.60
2019-05-10T17:19:34.061Z,0.67
2019-05-10T17:22:02.474Z,0.50
2019-05-10T17:24:33.079Z,0.50
2019-05-10T17:27:11.347Z,0.70
2019-05-10T17:29:49.677Z,0.60
2019-05-10T17:32:24.864Z,0.60
2019-05-10T17:34:51.963Z,0.60
2019-05-10T17:37:22.947Z,0.70
2019-05-10T17:39:53.944Z,0.47
2019-05-10T17:42:24.512Z,0.50
2019-05-10T17:45:01.365Z,0.70
2019-05-10T17:47:32.398Z,0.57
2019-05-10T17:50:00.503Z,0.80
2019-05-10T17:52:31.175Z,0.80
2019-05-10T17:55:11.071Z,0.50
2019-05-10T17:57:41.708Z,0.80
2019-05-10T18:00:14.465Z,0.60
2019-05-10T18:02:44.983Z,0.90
2019-05-10T18:05:18.198Z,0.90
2019-05-10T18:07:48.732Z,0.80
2019-05-10T18:10:19.744Z,1.00
2019-05-10T18:12:50.302Z,1.07
2019-05-10T18:15:21.524Z,0.83
2019-05-10T18:17:52.113Z,0.90
2019-05-10T18:20:22.918Z,1.10
2019-05-10T18:22:53.449Z,1.30
2019-05-10T18:25:24.099Z,1.30
2019-05-10T18:27:55.456Z,2.00
2019-05-10T18:30:26.205Z,1.60
2019-05-10T18:32:56.874Z,1.20
2019-05-10T18:35:27.513Z,0.90
2019-05-10T18:38:00.972Z,1.03
2019-05-10T18:40:33.573Z,1.00
2019-05-10T18:43:05.740Z,0.73
2019-05-10T18:45:36.451Z,0.83
2019-05-10T18:48:07.079Z,1.00
2019-05-10T18:50:39.619Z,0.80
2019-05-10T18:53:10.020Z,0.97
2019-05-10T18:55:40.777Z,1.10
2019-05-10T18:58:11.368Z,1.37
2019-05-10T19:00:44.321Z,1.10
2019-05-10T19:03:17.502Z,1.30
2019-05-10T19:05:50.607Z,1.37
2019-05-10T19:08:21.572Z,1.40
2019-05-10T19:10:52.292Z,1.00
2019-05-10T19:13:23.108Z,1.17
2019-05-10T19:15:58.215Z,1.37
2019-05-10T19:18:25.877Z,1.20
2019-05-10T19:20:56.636Z,1.30
2019-05-10T19:23:28.291Z,1.40
2019-05-10T19:26:02.597Z,1.53
2019-05-10T19:28:33.900Z,1.10
2019-05-10T19:31:04.802Z,1.20
2019-05-10T19:33:36.789Z,1.43
2019-05-10T19:36:13.092Z,1.33
2019-05-10T19:38:41.100Z,1.00
2019-05-10T19:41:11.728Z,1.20
2019-05-10T19:43:44.662Z,1.20
2019-05-10T19:46:15.245Z,1.00
2019-05-10T19:48:46.853Z,1.43
2019-05-10T19:51:17.612Z,1.27
2019-05-10T19:53:48.311Z,1.57
2019-05-10T19:56:19.107Z,1.50
2019-05-10T19:58:51.284Z,1.60
2019-05-10T20:01:25.148Z,1.63
2019-05-10T20:03:55.674Z,1.50
2019-05-10T20:06:27.310Z,1.67
2019-05-10T20:12:45.284Z,1.60
2019-05-10T20:15:16.160Z,1.27
2019-05-10T20:17:47.150Z,1.50
2019-05-10T20:20:18.084Z,1.60
2019-05-10T20:22:48.930Z,1.60
2019-05-10T20:25:19.526Z,1.30
2019-05-10T20:27:54.269Z,1.40
2019-05-10T20:30:25.167Z,1.00
2019-05-10T20:32:55.684Z,1.20
2019-05-10T20:35:26.663Z,1.20
2019-05-10T20:38:02.047Z,1.23
2019-05-10T20:40:30.381Z,1.27
2019-05-10T20:43:01.324Z,1.47
2019-05-10T20:45:31.857Z,1.53
2019-05-10T20:50:31.856Z,1.70
2019-05-10T20:53:02.220Z,1.80
2019-05-10T20:55:32.727Z,1.57
2019-05-10T20:58:03.418Z,1.43
2019-05-10T21:00:33.829Z,1.70
2019-05-10T21:03:17.029Z,1.37
2019-05-10T21:05:46.010Z,1.70
2019-05-10T21:08:17.512Z,1.77
2019-05-10T21:10:48.008Z,1.60
2019-05-10T21:13:18.611Z,1.70
2019-05-10T21:15:52.160Z,1.77
2019-05-10T21:18:22.856Z,1.67
2019-05-10T21:20:53.512Z,1.80
2019-05-10T21:23:24.257Z,1.87
2019-05-10T21:25:55.602Z,1.70
2019-05-10T21:28:28.903Z,2.50
2019-05-10T21:30:59.399Z,2.10
2019-05-10T21:33:30.176Z,1.97
2019-05-10T21:36:00.988Z,1.57
2019-05-10T21:38:33.449Z,1.73
2019-05-10T21:41:04.799Z,1.50
2019-05-10T21:43:35.548Z,1.63
2019-05-10T21:46:06.353Z,1.70
2019-05-10T21:48:36.980Z,1.77
2019-05-10T21:51:07.550Z,2.20
2019-05-10T21:53:38.245Z,2.13
2019-05-10T21:56:08.664Z,2.00
2019-05-10T21:58:39.183Z,1.93
2019-05-10T22:01:09.649Z,2.00
2019-05-10T22:03:40.245Z,1.97
2019-05-10T22:06:10.159Z,1.63
2019-05-10T22:11:50.000Z,1.80
2019-05-10T22:14:27.182Z,1.73
2019-05-10T22:16:57.993Z,1.70
2019-05-10T22:19:28.990Z,1.87
2019-05-10T22:22:03.417Z,1.80
2019-05-10T22:24:38.353Z,1.80
2019-05-10T22:27:09.009Z,1.70
2019-05-10T22:29:39.552Z,1.63
2019-05-10T22:32:10.395Z,1.37
2019-05-10T22:34:40.836Z,1.90
2019-05-10T22:39:41.129Z,1.77
2019-05-10T22:42:16.723Z,2.33
2019-05-10T22:44:50.123Z,2.63
2019-05-10T22:47:20.682Z,1.93
2019-05-10T22:49:51.625Z,2.10
2019-05-10T22:52:22.298Z,2.00
2019-05-10T22:54:54.359Z,1.97
2019-05-10T22:57:24.987Z,2.10
2019-05-10T22:59:55.929Z,1.97
2019-05-10T23:02:26.649Z,1.90
2019-05-10T23:04:57.474Z,2.00
2019-05-10T23:07:28.518Z,2.27
2019-05-10T23:09:59.269Z,1.97
2019-05-10T23:12:30.105Z,2.10
2019-05-10T23:15:00.861Z,1.97
2019-05-10T23:17:33.158Z,2.40
2019-05-10T23:20:03.958Z,2.60
2019-05-10T23:22:34.741Z,2.10
2019-05-10T23:25:05.627Z,2.70
2019-05-10T23:27:36.402Z,2.17
2019-05-10T23:30:08.953Z,2.50
2019-05-10T23:32:41.057Z,2.43
2019-05-10T23:35:12.905Z,2.23
2019-05-10T23:37:43.500Z,2.10
2019-05-10T23:40:16.783Z,2.60
2019-05-10T23:42:47.473Z,2.67
2019-05-10T23:45:18.232Z,3.00
2019-05-10T23:50:19.434Z,3.42
2019-05-10T23:52:50.171Z,3.47
2019-05-10T23:55:21.053Z,3.53
2019-05-10T23:57:51.568Z,3.27
